sensor_id;sensor_type;location;lat;lon;timestamp;pressure;altitude;pressure_sealevel;temperature;humidity
40285;BME280;25997;50.214;19.354;2023-04-07T00:00:26;97717.69;;;0.97;59.59
40285;BME280;25997;50.214;19.354;2023-04-07T00:03:28;97713.50;;;0.99;59.51
40285;BME280;25997;50.214;19.354;2023-04-07T00:06:31;97715.66;;;1.06;59.33
40285;BME280;25997;50.214;19.354;2023-04-07T00:09:35;97710.00;;;1.13;58.96
40285;BME280;25997;50.214;19.354;2023-04-07T00:12:37;97710.19;;;1.16;58.95
40285;BME280;25997;50.214;19.354;2023-04-07T00:15:40;97710.38;;;1.19;58.79
40285;BME280;25997;50.214;19.354;2023-04-07T00:18:42;97708.03;;;1.24;58.64
40285;BME280;25997;50.214;19.354;2023-04-07T00:21:45;97707.25;;;1.10;59.44
40285;BME280;25997;50.214;19.354;2023-04-07T00:24:49;97695.50;;;1.15;59.01
40285;BME280;25997;50.214;19.354;2023-04-07T00:27:51;97700.47;;;1.12;59.45
40285;BME280;25997;50.214;19.354;2023-04-07T00:30:54;97696.66;;;1.06;59.65
40285;BME280;25997;50.214;19.354;2023-04-07T00:33:56;97700.56;;;1.14;59.31
40285;BME280;25997;50.214;19.354;2023-04-07T00:37:00;97691.91;;;1.13;59.25
40285;BME280;25997;50.214;19.354;2023-04-07T00:40:05;97692.97;;;1.17;59.28
40285;BME280;25997;50.214;19.354;2023-04-07T00:43:08;97696.53;;;1.19;59.11
40285;BME280;25997;50.214;19.354;2023-04-07T00:46:10;97695.50;;;1.15;59.19
40285;BME280;25997;50.214;19.354;2023-04-07T00:49:13;97687.75;;;1.15;59.45
40285;BME280;25997;50.214;19.354;2023-04-07T00:52:18;97685.34;;;1.04;60.17
40285;BME280;25997;50.214;19.354;2023-04-07T00:55:28;97681.16;;;1.06;60.07
40285;BME280;25997;50.214;19.354;2023-04-07T00:58:31;97677.59;;;1.04;60.18
40285;BME280;25997;50.214;19.354;2023-04-07T01:01:39;97672.94;;;0.98;60.59
40285;BME280;25997;50.214;19.354;2023-04-07T01:04:48;97669.84;;;1.04;60.71
40285;BME280;25997;50.214;19.354;2023-04-07T01:07:58;97672.56;;;1.07;60.38
40285;BME280;25997;50.214;19.354;2023-04-07T01:11:07;97664.66;;;1.04;60.82
40285;BME280;25997;50.214;19.354;2023-04-07T01:14:12;97659.66;;;1.07;60.52
40285;BME280;25997;50.214;19.354;2023-04-07T01:17:20;97677.41;;;1.01;60.69
40285;BME280;25997;50.214;19.354;2023-04-07T01:20:26;97664.81;;;1.07;60.66
40285;BME280;25997;50.214;19.354;2023-04-07T01:23:48;97663.22;;;1.09;60.95
40285;BME280;25997;50.214;19.354;2023-04-07T01:26:56;97668.03;;;1.03;60.93
40285;BME280;25997;50.214;19.354;2023-04-07T01:30:04;97666.72;;;0.95;61.15
40285;BME280;25997;50.214;19.354;2023-04-07T01:33:11;97664.94;;;0.94;60.68
40285;BME280;25997;50.214;19.354;2023-04-07T01:36:16;97665.66;;;0.91;61.20
40285;BME280;25997;50.214;19.354;2023-04-07T01:39:20;97667.97;;;1.01;61.24
40285;BME280;25997;50.214;19.354;2023-04-07T01:42:24;97661.81;;;0.99;61.04
40285;BME280;25997;50.214;19.354;2023-04-07T01:45:29;97649.16;;;1.04;61.26
40285;BME280;25997;50.214;19.354;2023-04-07T01:48:34;97657.69;;;1.03;61.27
40285;BME280;25997;50.214;19.354;2023-04-07T01:51:37;97657.06;;;1.07;61.24
40285;BME280;25997;50.214;19.354;2023-04-07T01:54:41;97655.81;;;1.15;61.44
40285;BME280;25997;50.214;19.354;2023-04-07T01:57:44;97650.78;;;1.18;61.07
40285;BME280;25997;50.214;19.354;2023-04-07T02:00:52;97645.56;;;1.16;60.95
40285;BME280;25997;50.214;19.354;2023-04-07T02:04:04;97650.97;;;1.21;60.89
40285;BME280;25997;50.214;19.354;2023-04-07T02:07:16;97662.47;;;1.26;60.90
40285;BME280;25997;50.214;19.354;2023-04-07T02:10:26;97656.59;;;1.29;60.83
40285;BME280;25997;50.214;19.354;2023-04-07T02:13:33;97657.38;;;1.28;60.84
40285;BME280;25997;50.214;19.354;2023-04-07T02:16:38;97651.56;;;1.32;60.64
40285;BME280;25997;50.214;19.354;2023-04-07T02:19:43;97656.41;;;1.25;60.80
40285;BME280;25997;50.214;19.354;2023-04-07T02:22:47;97654.06;;;1.30;60.81
40285;BME280;25997;50.214;19.354;2023-04-07T02:25:50;97654.13;;;1.15;60.98
40285;BME280;25997;50.214;19.354;2023-04-07T02:28:53;97663.38;;;1.12;60.88
40285;BME280;25997;50.214;19.354;2023-04-07T02:31:57;97660.09;;;1.14;60.93
40285;BME280;25997;50.214;19.354;2023-04-07T02:35:04;97650.34;;;1.25;61.09
40285;BME280;25997;50.214;19.354;2023-04-07T02:38:09;97647.41;;;1.19;61.03
40285;BME280;25997;50.214;19.354;2023-04-07T02:41:11;97646.28;;;1.14;60.96
40285;BME280;25997;50.214;19.354;2023-04-07T02:44:13;97644.50;;;1.13;61.39
40285;BME280;25997;50.214;19.354;2023-04-07T02:47:18;97632.56;;;1.15;61.31
40285;BME280;25997;50.214;19.354;2023-04-07T02:50:21;97629.31;;;1.19;61.13
40285;BME280;25997;50.214;19.354;2023-04-07T02:53:23;97630.69;;;1.12;61.10
40285;BME280;25997;50.214;19.354;2023-04-07T02:56:26;97628.63;;;1.07;61.09
40285;BME280;25997;50.214;19.354;2023-04-07T02:59:29;97624.94;;;1.02;61.41
40285;BME280;25997;50.214;19.354;2023-04-07T03:02:33;97623.13;;;1.01;61.46
40285;BME280;25997;50.214;19.354;2023-04-07T03:05:35;97632.69;;;1.02;61.56
40285;BME280;25997;50.214;19.354;2023-04-07T03:08:39;97642.63;;;1.10;61.26
40285;BME280;25997;50.214;19.354;2023-04-07T03:11:42;97636.19;;;1.18;61.40
40285;BME280;25997;50.214;19.354;2023-04-07T03:14:44;97639.66;;;1.19;61.04
40285;BME280;25997;50.214;19.354;2023-04-07T03:17:50;97639.66;;;1.19;61.37
40285;BME280;25997;50.214;19.354;2023-04-07T03:20:52;97637.16;;;1.20;61.06
40285;BME280;25997;50.214;19.354;2023-04-07T03:23:56;97633.06;;;1.24;61.31
40285;BME280;25997;50.214;19.354;2023-04-07T03:26:58;97634.31;;;1.16;61.51
40285;BME280;25997;50.214;19.354;2023-04-07T03:30:16;97633.69;;;1.20;61.20
40285;BME280;25997;50.214;19.354;2023-04-07T03:33:21;97632.09;;;1.22;61.28
40285;BME280;25997;50.214;19.354;2023-04-07T03:36:24;97639.03;;;1.23;61.16
40285;BME280;25997;50.214;19.354;2023-04-07T03:39:30;97628.44;;;1.18;61.54
40285;BME280;25997;50.214;19.354;2023-04-07T03:42:35;97633.78;;;1.21;61.41
40285;BME280;25997;50.214;19.354;2023-04-07T03:45:41;97630.03;;;1.16;61.36
40285;BME280;25997;50.214;19.354;2023-04-07T03:48:45;97632.38;;;1.12;61.47
40285;BME280;25997;50.214;19.354;2023-04-07T03:51:48;97627.38;;;1.15;61.62
40285;BME280;25997;50.214;19.354;2023-04-07T03:54:52;97626.66;;;1.17;61.44
40285;BME280;25997;50.214;19.354;2023-04-07T03:57:59;97629.97;;;1.15;61.24
40285;BME280;25997;50.214;19.354;2023-04-07T04:01:05;97620.34;;;1.12;61.51
40285;BME280;25997;50.214;19.354;2023-04-07T04:04:10;97617.03;;;1.15;61.66
40285;BME280;25997;50.214;19.354;2023-04-07T04:07:12;97624.63;;;1.12;61.88
40285;BME280;25997;50.214;19.354;2023-04-07T04:10:19;97623.13;;;1.15;61.70
40285;BME280;25997;50.214;19.354;2023-04-07T04:13:24;97623.97;;;1.16;61.64
40285;BME280;25997;50.214;19.354;2023-04-07T04:16:29;97624.63;;;1.12;61.78
40285;BME280;25997;50.214;19.354;2023-04-07T04:19:38;97637.16;;;1.20;61.68
40285;BME280;25997;50.214;19.354;2023-04-07T04:22:49;97639.09;;;1.24;61.60
40285;BME280;25997;50.214;19.354;2023-04-07T04:25:53;97633.38;;;1.30;61.53
40285;BME280;25997;50.214;19.354;2023-04-07T04:28:56;97636.69;;;1.28;61.41
40285;BME280;25997;50.214;19.354;2023-04-07T04:31:59;97635.09;;;1.30;61.76
40285;BME280;25997;50.214;19.354;2023-04-07T04:35:05;97640.09;;;1.27;61.33
40285;BME280;25997;50.214;19.354;2023-04-07T04:38:12;97654.47;;;1.21;61.67
40285;BME280;25997;50.214;19.354;2023-04-07T04:41:20;97647.69;;;1.23;61.73
40285;BME280;25997;50.214;19.354;2023-04-07T04:44:24;97646.84;;;1.24;61.77
40285;BME280;25997;50.214;19.354;2023-04-07T04:47:28;97641.78;;;1.26;61.71
40285;BME280;25997;50.214;19.354;2023-04-07T04:50:32;97654.34;;;1.20;61.96
40285;BME280;25997;50.214;19.354;2023-04-07T04:53:39;97663.13;;;1.22;62.05
40285;BME280;25997;50.214;19.354;2023-04-07T04:56:42;97654.78;;;1.28;61.94
40285;BME280;25997;50.214;19.354;2023-04-07T04:59:46;97649.81;;;1.31;61.74
40285;BME280;25997;50.214;19.354;2023-04-07T05:02:49;97639.47;;;1.31;61.64
40285;BME280;25997;50.214;19.354;2023-04-07T05:05:53;97640.09;;;1.27;61.73
40285;BME280;25997;50.214;19.354;2023-04-07T05:08:57;97651.75;;;1.35;61.93
40285;BME280;25997;50.214;19.354;2023-04-07T05:12:06;97654.59;;;1.39;61.81
40285;BME280;25997;50.214;19.354;2023-04-07T05:15:14;97658.69;;;1.36;61.76
40285;BME280;25997;50.214;19.354;2023-04-07T05:18:20;97674.44;;;1.40;61.97
40285;BME280;25997;50.214;19.354;2023-04-07T05:21:25;97663.31;;;1.41;61.66
40285;BME280;25997;50.214;19.354;2023-04-07T05:24:30;97663.56;;;1.46;62.09
40285;BME280;25997;50.214;19.354;2023-04-07T05:27:35;97672.63;;;1.54;61.72
40285;BME280;25997;50.214;19.354;2023-04-07T05:30:44;97661.94;;;1.48;61.53
40285;BME280;25997;50.214;19.354;2023-04-07T05:33:47;97666.22;;;1.47;61.81
40285;BME280;25997;50.214;19.354;2023-04-07T05:36:52;97658.38;;;1.46;61.73
40285;BME280;25997;50.214;19.354;2023-04-07T05:39:55;97661.22;;;1.50;61.61
40285;BME280;25997;50.214;19.354;2023-04-07T05:42:58;97667.44;;;1.54;61.51
40285;BME280;25997;50.214;19.354;2023-04-07T05:46:03;97662.13;;;1.51;61.88
40285;BME280;25997;50.214;19.354;2023-04-07T05:49:09;97649.34;;;1.54;61.69
40285;BME280;25997;50.214;19.354;2023-04-07T05:52:14;97635.13;;;1.46;61.86
40285;BME280;25997;50.214;19.354;2023-04-07T05:55:21;97652.00;;;1.39;61.92
40285;BME280;25997;50.214;19.354;2023-04-07T05:58:26;97658.69;;;1.36;61.86
40285;BME280;25997;50.214;19.354;2023-04-07T06:01:30;97662.00;;;1.33;62.06
40285;BME280;25997;50.214;19.354;2023-04-07T06:04:32;97650.31;;;1.40;61.87
40285;BME280;25997;50.214;19.354;2023-04-07T06:07:39;97644.28;;;1.55;61.98
40285;BME280;25997;50.214;19.354;2023-04-07T06:10:42;97659.13;;;1.43;61.91
40285;BME280;25997;50.214;19.354;2023-04-07T06:13:46;97648.50;;;1.39;61.96
40285;BME280;25997;50.214;19.354;2023-04-07T06:16:48;97662.84;;;1.48;62.24
40285;BME280;25997;50.214;19.354;2023-04-07T06:19:51;97656.88;;;1.65;61.92
40285;BME280;25997;50.214;19.354;2023-04-07T06:22:55;97655.44;;;1.70;61.69
40285;BME280;25997;50.214;19.354;2023-04-07T06:25:58;97653.50;;;1.66;61.76
40285;BME280;25997;50.214;19.354;2023-04-07T06:29:00;97667.78;;;1.76;61.75
40285;BME280;25997;50.214;19.354;2023-04-07T06:32:03;97668.22;;;1.83;61.80
40285;BME280;25997;50.214;19.354;2023-04-07T06:35:06;97669.44;;;1.90;61.73
40285;BME280;25997;50.214;19.354;2023-04-07T06:38:10;97666.78;;;1.88;61.18
40285;BME280;25997;50.214;19.354;2023-04-07T06:41:12;97658.59;;;1.81;61.60
40285;BME280;25997;50.214;19.354;2023-04-07T06:44:17;97657.88;;;1.83;61.48
40285;BME280;25997;50.214;19.354;2023-04-07T06:47:19;97652.53;;;1.80;61.37
40285;BME280;25997;50.214;19.354;2023-04-07T06:50:22;97652.53;;;1.80;61.58
40285;BME280;25997;50.214;19.354;2023-04-07T06:53:25;97649.69;;;1.76;61.86
40285;BME280;25997;50.214;19.354;2023-04-07T06:56:28;97657.63;;;1.79;61.74
40285;BME280;25997;50.214;19.354;2023-04-07T06:59:31;97652.63;;;1.82;61.88
40285;BME280;25997;50.214;19.354;2023-04-07T07:02:33;97652.63;;;1.82;61.76
40285;BME280;25997;50.214;19.354;2023-04-07T07:05:36;97649.94;;;1.80;61.84
40285;BME280;25997;50.214;19.354;2023-04-07T07:08:40;97659.81;;;1.87;62.06
40285;BME280;25997;50.214;19.354;2023-04-07T07:11:42;97661.25;;;1.98;61.93
40285;BME280;25997;50.214;19.354;2023-04-07T07:14:44;97661.50;;;2.03;61.75
40285;BME280;25997;50.214;19.354;2023-04-07T07:17:47;97671.44;;;2.12;61.65
40285;BME280;25997;50.214;19.354;2023-04-07T07:20:49;97669.94;;;2.15;61.81
40285;BME280;25997;50.214;19.354;2023-04-07T07:23:53;97671.69;;;2.16;61.77
40285;BME280;25997;50.214;19.354;2023-04-07T07:26:56;97684.09;;;2.22;61.68
40285;BME280;25997;50.214;19.354;2023-04-07T07:29:58;97687.16;;;2.31;61.82
40285;BME280;25997;50.214;19.354;2023-04-07T07:33:01;97681.06;;;2.30;61.57
40285;BME280;25997;50.214;19.354;2023-04-07T07:36:03;97665.78;;;2.19;61.38
40285;BME280;25997;50.214;19.354;2023-04-07T07:39:07;97657.78;;;1.98;61.77
40285;BME280;25997;50.214;19.354;2023-04-07T07:42:11;97633.94;;;1.87;62.14
40285;BME280;25997;50.214;19.354;2023-04-07T07:45:13;97654.44;;;1.84;62.32
40285;BME280;25997;50.214;19.354;2023-04-07T07:48:17;97673.72;;;1.89;62.30
40285;BME280;25997;50.214;19.354;2023-04-07T07:51:20;97671.19;;;2.07;62.28
40285;BME280;25997;50.214;19.354;2023-04-07T07:54:24;97671.63;;;2.15;62.09
40285;BME280;25997;50.214;19.354;2023-04-07T07:57:27;97674.69;;;2.24;61.98
40285;BME280;25997;50.214;19.354;2023-04-07T08:00:30;97674.03;;;2.28;61.50
40285;BME280;25997;50.214;19.354;2023-04-07T08:03:33;97667.06;;;2.27;61.68
40285;BME280;25997;50.214;19.354;2023-04-07T08:06:35;97683.00;;;2.34;61.89
40285;BME280;25997;50.214;19.354;2023-04-07T08:09:39;97686.00;;;2.42;61.54
40285;BME280;25997;50.214;19.354;2023-04-07T08:12:42;97683.00;;;2.34;61.39
40285;BME280;25997;50.214;19.354;2023-04-07T08:15:45;97676.06;;;2.33;61.84
40285;BME280;25997;50.214;19.354;2023-04-07T08:18:47;97676.38;;;2.23;61.51
40285;BME280;25997;50.214;19.354;2023-04-07T08:21:50;97675.59;;;2.24;61.84
40285;BME280;25997;50.214;19.354;2023-04-07T08:24:54;97662.72;;;2.26;61.78
40285;BME280;25997;50.214;19.354;2023-04-07T08:27:57;97671.91;;;2.37;61.94
40285;BME280;25997;50.214;19.354;2023-04-07T08:30:59;97679.28;;;2.29;61.77
40285;BME280;25997;50.214;19.354;2023-04-07T08:34:02;97679.03;;;2.25;61.79
40285;BME280;25997;50.214;19.354;2023-04-07T08:37:04;97681.63;;;2.25;62.08
40285;BME280;25997;50.214;19.354;2023-04-07T08:40:11;97675.66;;;2.26;61.85
40285;BME280;25997;50.214;19.354;2023-04-07T08:43:14;97673.38;;;2.32;62.16
40285;BME280;25997;50.214;19.354;2023-04-07T08:46:20;97676.06;;;2.33;61.84
40285;BME280;25997;50.214;19.354;2023-04-07T08:49:26;97671.69;;;2.32;61.90
40285;BME280;25997;50.214;19.354;2023-04-07T08:52:32;97661.56;;;2.37;61.83
40285;BME280;25997;50.214;19.354;2023-04-07T08:55:37;97648.78;;;2.40;61.92
40285;BME280;25997;50.214;19.354;2023-04-07T08:58:40;97653.56;;;2.32;62.25
40285;BME280;25997;50.214;19.354;2023-04-07T09:01:42;97665.47;;;2.29;62.41
40285;BME280;25997;50.214;19.354;2023-04-07T09:04:45;97670.72;;;2.30;62.16
40285;BME280;25997;50.214;19.354;2023-04-07T09:07:48;97663.13;;;2.33;62.32
40285;BME280;25997;50.214;19.354;2023-04-07T09:10:52;97652.66;;;2.32;62.17
40285;BME280;25997;50.214;19.354;2023-04-07T09:13:55;97658.72;;;2.32;62.44
40285;BME280;25997;50.214;19.354;2023-04-07T09:16:59;97656.31;;;2.35;62.43
40285;BME280;25997;50.214;19.354;2023-04-07T09:20:01;97648.78;;;2.40;62.32
40285;BME280;25997;50.214;19.354;2023-04-07T09:23:04;97654.41;;;2.49;62.02
40285;BME280;25997;50.214;19.354;2023-04-07T09:26:22;97650.38;;;2.38;62.02
40285;BME280;25997;50.214;19.354;2023-04-07T09:29:25;97649.41;;;2.36;62.23
40285;BME280;25997;50.214;19.354;2023-04-07T09:32:34;97650.09;;;2.49;62.41
40285;BME280;25997;50.214;19.354;2023-04-07T09:35:50;97656.88;;;2.63;62.19
40285;BME280;25997;50.214;19.354;2023-04-07T09:38:53;97655.56;;;2.71;61.79
40285;BME280;25997;50.214;19.354;2023-04-07T09:41:57;97664.38;;;2.75;61.88
40285;BME280;25997;50.214;19.354;2023-04-07T09:45:00;97660.66;;;2.70;61.78
40285;BME280;25997;50.214;19.354;2023-04-07T09:48:06;97669.94;;;2.83;62.07
40285;BME280;25997;50.214;19.354;2023-04-07T09:51:09;97666.38;;;2.81;62.07
40285;BME280;25997;50.214;19.354;2023-04-07T09:54:12;97668.31;;;2.85;61.84
40285;BME280;25997;50.214;19.354;2023-04-07T09:57:17;97664.28;;;2.73;61.76
40285;BME280;25997;50.214;19.354;2023-04-07T10:00:20;97664.47;;;2.77;61.89
40285;BME280;25997;50.214;19.354;2023-04-07T10:03:23;97674.97;;;2.80;61.63
40285;BME280;25997;50.214;19.354;2023-04-07T10:06:26;97672.28;;;2.78;61.52
40285;BME280;25997;50.214;19.354;2023-04-07T10:09:31;97673.03;;;2.75;62.00
40285;BME280;25997;50.214;19.354;2023-04-07T10:12:36;97676.84;;;2.82;61.83
40285;BME280;25997;50.214;19.354;2023-04-07T10:15:39;97681.03;;;2.80;61.68
40285;BME280;25997;50.214;19.354;2023-04-07T10:18:41;97667.94;;;2.77;61.94
40285;BME280;25997;50.214;19.354;2023-04-07T10:21:44;97662.41;;;2.87;62.06
40285;BME280;25997;50.214;19.354;2023-04-07T10:24:53;97668.00;;;2.95;61.75
40285;BME280;25997;50.214;19.354;2023-04-07T10:28:03;97670.38;;;3.08;61.94
40285;BME280;25997;50.214;19.354;2023-04-07T10:31:07;97667.31;;;3.16;61.56
40285;BME280;25997;50.214;19.354;2023-04-07T10:34:10;97653.19;;;3.10;61.41
40285;BME280;25997;50.214;19.354;2023-04-07T10:37:13;97658.59;;;3.14;61.63
40285;BME280;25997;50.214;19.354;2023-04-07T10:40:28;97659.59;;;3.18;61.50
40285;BME280;25997;50.214;19.354;2023-04-07T10:43:39;97656.38;;;3.04;61.58
40285;BME280;25997;50.214;19.354;2023-04-07T10:47:02;97652.59;;;2.98;61.79
40285;BME280;25997;50.214;19.354;2023-04-07T10:50:18;97658.19;;;2.89;62.10
40285;BME280;25997;50.214;19.354;2023-04-07T10:53:20;97646.97;;;2.89;62.34
40285;BME280;25997;50.214;19.354;2023-04-07T10:56:24;97639.41;;;2.93;62.14
40285;BME280;25997;50.214;19.354;2023-04-07T10:59:28;97649.19;;;2.99;62.57
40285;BME280;25997;50.214;19.354;2023-04-07T11:02:34;97647.31;;;2.96;62.25
40285;BME280;25997;50.214;19.354;2023-04-07T11:05:36;97647.25;;;2.95;62.50
40285;BME280;25997;50.214;19.354;2023-04-07T11:08:41;97646.53;;;2.97;62.46
40285;BME280;25997;50.214;19.354;2023-04-07T11:11:44;97649.19;;;2.99;62.33
40285;BME280;25997;50.214;19.354;2023-04-07T11:14:50;97648.38;;;3.00;62.55
40285;BME280;25997;50.214;19.354;2023-04-07T11:18:14;97655.72;;;3.08;62.19
40285;BME280;25997;50.214;19.354;2023-04-07T11:21:18;97645.69;;;2.98;62.29
40285;BME280;25997;50.214;19.354;2023-04-07T11:24:33;97650.59;;;2.92;62.59
40285;BME280;25997;50.214;19.354;2023-04-07T11:27:37;97653.09;;;2.91;62.66
40285;BME280;25997;50.214;19.354;2023-04-07T11:30:47;97648.00;;;3.10;62.59
40285;BME280;25997;50.214;19.354;2023-04-07T11:33:52;97641.47;;;3.00;62.40
40285;BME280;25997;50.214;19.354;2023-04-07T11:36:55;97653.19;;;3.10;62.72
40285;BME280;25997;50.214;19.354;2023-04-07T11:40:00;97657.78;;;3.33;62.97
40285;BME280;25997;50.214;19.354;2023-04-07T11:43:02;97653.03;;;3.42;62.42
40285;BME280;25997;50.214;19.354;2023-04-07T11:46:18;97658.13;;;3.40;61.97
40285;BME280;25997;50.214;19.354;2023-04-07T11:49:20;97656.19;;;3.36;62.39
40285;BME280;25997;50.214;19.354;2023-04-07T11:52:24;97652.94;;;3.40;62.48
40285;BME280;25997;50.214;19.354;2023-04-07T11:55:27;97662.84;;;3.49;62.48
40285;BME280;25997;50.214;19.354;2023-04-07T11:58:29;97661.38;;;3.36;62.05
40285;BME280;25997;50.214;19.354;2023-04-07T12:01:39;97655.47;;;3.39;62.60
40285;BME280;25997;50.214;19.354;2023-04-07T12:04:54;97661.09;;;3.48;62.25
40285;BME280;25997;50.214;19.354;2023-04-07T12:07:58;97665.31;;;3.46;62.17
40285;BME280;25997;50.214;19.354;2023-04-07T12:11:02;97654.25;;;3.50;62.07
40285;BME280;25997;50.214;19.354;2023-04-07T12:14:05;97652.47;;;3.49;61.91
40285;BME280;25997;50.214;19.354;2023-04-07T12:17:20;97645.75;;;3.35;61.84
40285;BME280;25997;50.214;19.354;2023-04-07T12:20:23;97650.00;;;3.33;62.31
40285;BME280;25997;50.214;19.354;2023-04-07T12:23:26;97642.44;;;3.37;62.38
40285;BME280;25997;50.214;19.354;2023-04-07T12:26:28;97641.88;;;3.44;62.41
40285;BME280;25997;50.214;19.354;2023-04-07T12:29:32;97641.09;;;3.65;62.57
40285;BME280;25997;50.214;19.354;2023-04-07T12:32:36;97637.75;;;3.67;62.04
40285;BME280;25997;50.214;19.354;2023-04-07T12:35:38;97644.78;;;3.70;62.22
40285;BME280;25997;50.214;19.354;2023-04-07T12:38:41;97645.47;;;3.66;62.09
40285;BME280;25997;50.214;19.354;2023-04-07T12:41:43;97640.59;;;3.54;62.38
40285;BME280;25997;50.214;19.354;2023-04-07T12:44:47;97651.25;;;3.60;62.42
40285;BME280;25997;50.214;19.354;2023-04-07T12:47:51;97648.22;;;3.51;62.24
40285;BME280;25997;50.214;19.354;2023-04-07T12:50:53;97653.09;;;3.43;62.28
40285;BME280;25997;50.214;19.354;2023-04-07T12:53:56;97648.59;;;3.59;62.41
40285;BME280;25997;50.214;19.354;2023-04-07T12:56:58;97657.28;;;3.59;62.09
40285;BME280;25997;50.214;19.354;2023-04-07T13:00:01;97649.50;;;3.59;62.00
40285;BME280;25997;50.214;19.354;2023-04-07T13:03:05;97659.81;;;3.58;62.04
40285;BME280;25997;50.214;19.354;2023-04-07T13:06:07;97658.66;;;3.70;62.53
40285;BME280;25997;50.214;19.354;2023-04-07T13:09:10;97658.13;;;3.77;62.08
40285;BME280;25997;50.214;19.354;2023-04-07T13:12:13;97666.66;;;3.75;61.91
40285;BME280;25997;50.214;19.354;2023-04-07T13:15:15;97666.72;;;3.76;62.28
40285;BME280;25997;50.214;19.354;2023-04-07T13:18:19;97662.22;;;3.72;61.98
40285;BME280;25997;50.214;19.354;2023-04-07T13:21:22;97658.03;;;3.57;62.07
40285;BME280;25997;50.214;19.354;2023-04-07T13:24:24;97666.50;;;3.53;62.01
40285;BME280;25997;50.214;19.354;2023-04-07T13:27:27;97666.81;;;3.60;62.28
40285;BME280;25997;50.214;19.354;2023-04-07T13:30:29;97670.09;;;3.56;62.10
40285;BME280;25997;50.214;19.354;2023-04-07T13:33:34;97668.69;;;3.63;62.21
40285;BME280;25997;50.214;19.354;2023-04-07T13:36:37;97673.19;;;3.67;62.24
40285;BME280;25997;50.214;19.354;2023-04-07T13:39:40;97667.72;;;3.61;62.05
40285;BME280;25997;50.214;19.354;2023-04-07T13:42:42;97672.25;;;3.65;62.09
40285;BME280;25997;50.214;19.354;2023-04-07T13:45:45;97677.38;;;3.63;62.19
40285;BME280;25997;50.214;19.354;2023-04-07T13:48:49;97676.16;;;3.74;62.38
40285;BME280;25997;50.214;19.354;2023-04-07T13:51:51;97672.75;;;3.75;62.27
40285;BME280;25997;50.214;19.354;2023-04-07T13:54:54;97677.00;;;3.73;62.25
40285;BME280;25997;50.214;19.354;2023-04-07T13:57:57;97678.38;;;3.67;62.15
40285;BME280;25997;50.214;19.354;2023-04-07T14:01:00;97673.06;;;3.64;62.39
40285;BME280;25997;50.214;19.354;2023-04-07T14:04:04;97663.72;;;3.67;62.32
40285;BME280;25997;50.214;19.354;2023-04-07T14:07:07;97670.59;;;3.67;62.22
40285;BME280;25997;50.214;19.354;2023-04-07T14:10:09;97665.56;;;3.70;62.20
40285;BME280;25997;50.214;19.354;2023-04-07T14:13:12;97668.22;;;3.71;62.25
40285;BME280;25997;50.214;19.354;2023-04-07T14:16:15;97677.94;;;3.75;62.56
40285;BME280;25997;50.214;19.354;2023-04-07T14:19:19;97664.34;;;3.81;62.42
40285;BME280;25997;50.214;19.354;2023-04-07T14:22:22;97668.84;;;3.85;62.41
40285;BME280;25997;50.214;19.354;2023-04-07T14:25:24;97671.97;;;3.95;62.31
40285;BME280;25997;50.214;19.354;2023-04-07T14:28:27;97665.47;;;3.86;62.24
40285;BME280;25997;50.214;19.354;2023-04-07T14:31:30;97673.31;;;3.87;62.46
40285;BME280;25997;50.214;19.354;2023-04-07T14:34:33;97665.31;;;3.83;62.25
40285;BME280;25997;50.214;19.354;2023-04-07T14:37:36;97667.84;;;3.81;62.23
40285;BME280;25997;50.214;19.354;2023-04-07T14:40:39;97672.88;;;3.78;62.33
40285;BME280;25997;50.214;19.354;2023-04-07T14:43:41;97669.47;;;3.79;62.27
40285;BME280;25997;50.214;19.354;2023-04-07T14:46:44;97661.75;;;3.81;62.56
40285;BME280;25997;50.214;19.354;2023-04-07T14:49:48;97668.53;;;3.77;62.47
40285;BME280;25997;50.214;19.354;2023-04-07T14:52:50;97675.63;;;3.81;62.57
40285;BME280;25997;50.214;19.354;2023-04-07T14:55:53;97669.81;;;3.87;62.82
40285;BME280;25997;50.214;19.354;2023-04-07T14:58:56;97667.53;;;3.93;62.77
40285;BME280;25997;50.214;19.354;2023-04-07T15:01:58;97674.56;;;3.95;62.51
40285;BME280;25997;50.214;19.354;2023-04-07T15:05:02;97673.66;;;3.95;62.63
40285;BME280;25997;50.214;19.354;2023-04-07T15:08:05;97673.50;;;3.92;62.63
40285;BME280;25997;50.214;19.354;2023-04-07T15:11:08;97671.34;;;4.01;62.64
40285;BME280;25997;50.214;19.354;2023-04-07T15:14:10;97678.22;;;4.00;62.65
40285;BME280;25997;50.214;19.354;2023-04-07T15:17:13;97676.00;;;4.08;62.69
40285;BME280;25997;50.214;19.354;2023-04-07T15:20:17;97676.88;;;4.08;62.52
40285;BME280;25997;50.214;19.354;2023-04-07T15:23:19;97672.84;;;4.15;62.45
40285;BME280;25997;50.214;19.354;2023-04-07T15:26:22;97679.59;;;4.11;62.43
40285;BME280;25997;50.214;19.354;2023-04-07T15:29:25;97682.88;;;4.07;62.42
40285;BME280;25997;50.214;19.354;2023-04-07T15:32:29;97687.59;;;4.16;62.63
40285;BME280;25997;50.214;19.354;2023-04-07T15:35:34;97679.06;;;4.18;62.25
40285;BME280;25997;50.214;19.354;2023-04-07T15:38:36;97678.84;;;4.14;62.29
40285;BME280;25997;50.214;19.354;2023-04-07T15:41:40;97683.84;;;4.09;62.34
40285;BME280;25997;50.214;19.354;2023-04-07T15:44:43;97679.28;;;4.04;62.30
40285;BME280;25997;50.214;19.354;2023-04-07T15:47:46;97682.56;;;4.00;62.45
40285;BME280;25997;50.214;19.354;2023-04-07T15:50:49;97684.13;;;3.96;62.46
40285;BME280;25997;50.214;19.354;2023-04-07T15:53:52;97671.66;;;3.89;62.38
40285;BME280;25997;50.214;19.354;2023-04-07T15:56:55;97679.97;;;3.82;62.56
40285;BME280;25997;50.214;19.354;2023-04-07T15:59:57;97673.09;;;3.83;62.76
40285;BME280;25997;50.214;19.354;2023-04-07T16:03:00;97680.19;;;3.87;62.76
40285;BME280;25997;50.214;19.354;2023-04-07T16:06:04;97673.19;;;3.84;62.80
40285;BME280;25997;50.214;19.354;2023-04-07T16:09:06;97679.03;;;3.80;62.72
40285;BME280;25997;50.214;19.354;2023-04-07T16:12:09;97686.91;;;3.82;62.90
40285;BME280;25997;50.214;19.354;2023-04-07T16:15:12;97678.16;;;3.80;62.96